sensor_id;sensor_type;location;lat;lon;timestamp;temperature;humidity
25708;DHT22;13567;61.652;17.100;2022-08-01T00:00:13;17.90;99.90
25708;DHT22;13567;61.652;17.100;2022-08-01T00:02:40;17.90;99.90
25708;DHT22;13567;61.652;17.100;2022-08-01T00:05:08;17.90;99.90
25708;DHT22;13567;61.652;17.100;2022-08-01T00:07:36;17.90;99.90
25708;DHT22;13567;61.652;17.100;2022-08-01T00:10:04;17.90;99.90
25708;DHT22;13567;61.652;17.100;2022-08-01T00:12:31;17.80;99.90
25708;DHT22;13567;61.652;17.100;2022-08-01T00:14:58;17.80;99.90
25708;DHT22;13567;61.652;17.100;2022-08-01T00:17:25;17.80;99.90
25708;DHT22;13567;61.652;17.100;2022-08-01T00:19:52;17.90;99.90
25708;DHT22;13567;61.652;17.100;2022-08-01T00:22:19;17.80;99.90
25708;DHT22;13567;61.652;17.100;2022-08-01T00:24:46;17.80;99.90
25708;DHT22;13567;61.652;17.100;2022-08-01T00:27:13;17.80;99.90
25708;DHT22;13567;61.652;17.100;2022-08-01T00:29:40;17.80;99.90
25708;DHT22;13567;61.652;17.100;2022-08-01T00:32:29;17.80;99.90
25708;DHT22;13567;61.652;17.100;2022-08-01T00:34:56;17.80;99.90
25708;DHT22;13567;61.652;17.100;2022-08-01T00:37:23;17.80;99.90
25708;DHT22;13567;61.652;17.100;2022-08-01T00:39:50;17.80;99.90
25708;DHT22;13567;61.652;17.100;2022-08-01T00:42:17;17.70;99.90
25708;DHT22;13567;61.652;17.100;2022-08-01T00:44:44;17.80;99.90
25708;DHT22;13567;61.652;17.100;2022-08-01T00:47:11;17.70;99.90
25708;DHT22;13567;61.652;17.100;2022-08-01T00:49:38;17.70;99.90
25708;DHT22;13567;61.652;17.100;2022-08-01T00:52:05;17.70;99.90
25708;DHT22;13567;61.652;17.100;2022-08-01T00:54:33;17.60;99.90
25708;DHT22;13567;61.652;17.100;2022-08-01T00:57:00;17.60;99.90
25708;DHT22;13567;61.652;17.100;2022-08-01T00:59:27;17.60;99.90
25708;DHT22;13567;61.652;17.100;2022-08-01T01:01:54;17.60;99.90
25708;DHT22;13567;61.652;17.100;2022-08-01T01:04:22;17.60;99.90
25708;DHT22;13567;61.652;17.100;2022-08-01T01:09:40;17.60;99.90
25708;DHT22;13567;61.652;17.100;2022-08-01T01:15:17;17.50;99.90
25708;DHT22;13567;61.652;17.100;2022-08-01T01:20:22;17.40;99.90
25708;DHT22;13567;61.652;17.100;2022-08-01T01:22:50;17.40;99.90
25708;DHT22;13567;61.652;17.100;2022-08-01T01:28:11;17.30;99.90
25708;DHT22;13567;61.652;17.100;2022-08-01T01:30:43;17.20;99.90
25708;DHT22;13567;61.652;17.100;2022-08-01T01:33:12;17.20;99.90
25708;DHT22;13567;61.652;17.100;2022-08-01T01:35:48;17.20;99.90
25708;DHT22;13567;61.652;17.100;2022-08-01T01:38:26;17.20;99.90
25708;DHT22;13567;61.652;17.100;2022-08-01T01:40:55;17.10;99.90
25708;DHT22;13567;61.652;17.100;2022-08-01T01:43:23;17.00;99.90
25708;DHT22;13567;61.652;17.100;2022-08-01T01:46:00;17.00;99.90
25708;DHT22;13567;61.652;17.100;2022-08-01T01:48:29;16.90;99.90
25708;DHT22;13567;61.652;17.100;2022-08-01T01:50:56;16.90;99.90
25708;DHT22;13567;61.652;17.100;2022-08-01T01:53:25;16.90;99.90
25708;DHT22;13567;61.652;17.100;2022-08-01T01:55:54;16.90;99.90
25708;DHT22;13567;61.652;17.100;2022-08-01T01:58:23;16.90;99.90
25708;DHT22;13567;61.652;17.100;2022-08-01T02:00:52;17.00;99.90
25708;DHT22;13567;61.652;17.100;2022-08-01T02:03:20;17.00;99.90
25708;DHT22;13567;61.652;17.100;2022-08-01T02:05:50;17.00;99.90
25708;DHT22;13567;61.652;17.100;2022-08-01T02:08:19;17.00;99.90
25708;DHT22;13567;61.652;17.100;2022-08-01T02:10:47;17.00;99.90
25708;DHT22;13567;61.652;17.100;2022-08-01T02:13:34;17.00;99.90
25708;DHT22;13567;61.652;17.100;2022-08-01T02:16:03;16.90;99.90
25708;DHT22;13567;61.652;17.100;2022-08-01T02:18:31;16.90;99.90
25708;DHT22;13567;61.652;17.100;2022-08-01T02:21:00;16.90;99.90
25708;DHT22;13567;61.652;17.100;2022-08-01T02:23:32;16.90;99.90
25708;DHT22;13567;61.652;17.100;2022-08-01T02:26:00;16.90;99.90
25708;DHT22;13567;61.652;17.100;2022-08-01T02:28:57;16.90;99.90
25708;DHT22;13567;61.652;17.100;2022-08-01T02:31:25;16.90;99.90
25708;DHT22;13567;61.652;17.100;2022-08-01T02:34:05;16.90;99.90
25708;DHT22;13567;61.652;17.100;2022-08-01T02:36:34;16.80;99.90
25708;DHT22;13567;61.652;17.100;2022-08-01T02:39:06;16.80;99.90
25708;DHT22;13567;61.652;17.100;2022-08-01T02:41:39;16.80;99.90
25708;DHT22;13567;61.652;17.100;2022-08-01T02:44:10;16.80;99.90
25708;DHT22;13567;61.652;17.100;2022-08-01T02:47:01;16.80;99.90
25708;DHT22;13567;61.652;17.100;2022-08-01T02:49:42;16.80;99.90
25708;DHT22;13567;61.652;17.100;2022-08-01T02:52:20;16.80;99.90
25708;DHT22;13567;61.652;17.100;2022-08-01T02:54:50;16.80;99.90
25708;DHT22;13567;61.652;17.100;2022-08-01T02:57:19;16.80;99.90
25708;DHT22;13567;61.652;17.100;2022-08-01T02:59:49;16.80;99.90
25708;DHT22;13567;61.652;17.100;2022-08-01T03:02:17;16.80;99.90
25708;DHT22;13567;61.652;17.100;2022-08-01T03:04:47;16.80;99.90
25708;DHT22;13567;61.652;17.100;2022-08-01T03:07:22;16.80;99.90
25708;DHT22;13567;61.652;17.100;2022-08-01T03:10:01;16.90;99.90
25708;DHT22;13567;61.652;17.100;2022-08-01T03:12:29;16.90;99.90
25708;DHT22;13567;61.652;17.100;2022-08-01T03:14:59;17.00;99.90
25708;DHT22;13567;61.652;17.100;2022-08-01T03:17:28;17.00;99.90
25708;DHT22;13567;61.652;17.100;2022-08-01T03:19:57;17.00;99.90
25708;DHT22;13567;61.652;17.100;2022-08-01T03:22:26;17.00;99.90
25708;DHT22;13567;61.652;17.100;2022-08-01T03:24:56;17.00;99.90
25708;DHT22;13567;61.652;17.100;2022-08-01T03:27:25;17.00;99.90
25708;DHT22;13567;61.652;17.100;2022-08-01T03:29:55;17.00;99.90
25708;DHT22;13567;61.652;17.100;2022-08-01T03:32:23;17.00;99.90
25708;DHT22;13567;61.652;17.100;2022-08-01T03:34:51;17.10;99.90
25708;DHT22;13567;61.652;17.100;2022-08-01T03:37:27;17.10;99.90
25708;DHT22;13567;61.652;17.100;2022-08-01T03:39:58;17.10;99.90
25708;DHT22;13567;61.652;17.100;2022-08-01T03:42:32;17.10;99.90
25708;DHT22;13567;61.652;17.100;2022-08-01T03:45:05;17.10;99.90
25708;DHT22;13567;61.652;17.100;2022-08-01T03:47:42;17.10;99.90
25708;DHT22;13567;61.652;17.100;2022-08-01T03:50:11;17.10;99.90
25708;DHT22;13567;61.652;17.100;2022-08-01T03:52:42;17.20;99.90
25708;DHT22;13567;61.652;17.100;2022-08-01T03:55:11;17.20;99.90
25708;DHT22;13567;61.652;17.100;2022-08-01T03:57:38;17.30;99.90
25708;DHT22;13567;61.652;17.100;2022-08-01T04:00:07;17.30;99.90
25708;DHT22;13567;61.652;17.100;2022-08-01T04:02:36;17.30;99.90
25708;DHT22;13567;61.652;17.100;2022-08-01T04:05:04;17.40;99.90
25708;DHT22;13567;61.652;17.100;2022-08-01T04:07:33;17.30;99.90
25708;DHT22;13567;61.652;17.100;2022-08-01T04:10:03;17.30;99.90
25708;DHT22;13567;61.652;17.100;2022-08-01T04:12:31;17.40;99.90
25708;DHT22;13567;61.652;17.100;2022-08-01T04:14:59;17.40;99.90
25708;DHT22;13567;61.652;17.100;2022-08-01T04:17:26;17.40;99.90
25708;DHT22;13567;61.652;17.100;2022-08-01T04:19:53;17.30;99.90
25708;DHT22;13567;61.652;17.100;2022-08-01T04:22:20;17.30;99.90
25708;DHT22;13567;61.652;17.100;2022-08-01T04:24:49;17.40;99.90
25708;DHT22;13567;61.652;17.100;2022-08-01T04:27:26;17.40;99.90
25708;DHT22;13567;61.652;17.100;2022-08-01T04:30:17;17.40;99.90
25708;DHT22;13567;61.652;17.100;2022-08-01T04:32:47;17.30;99.90
25708;DHT22;13567;61.652;17.100;2022-08-01T04:35:16;17.20;99.90
25708;DHT22;13567;61.652;17.100;2022-08-01T04:38:05;17.20;99.90
25708;DHT22;13567;61.652;17.100;2022-08-01T04:40:32;17.20;99.90
25708;DHT22;13567;61.652;17.100;2022-08-01T04:43:01;17.20;99.90
25708;DHT22;13567;61.652;17.100;2022-08-01T04:45:28;17.20;99.90
25708;DHT22;13567;61.652;17.100;2022-08-01T04:47:57;17.30;99.90
25708;DHT22;13567;61.652;17.100;2022-08-01T04:50:24;17.30;99.90
25708;DHT22;13567;61.652;17.100;2022-08-01T04:52:51;17.20;99.90
25708;DHT22;13567;61.652;17.100;2022-08-01T04:55:18;17.20;99.90
25708;DHT22;13567;61.652;17.100;2022-08-01T04:57:46;17.20;99.90
25708;DHT22;13567;61.652;17.100;2022-08-01T05:00:14;17.20;99.90
25708;DHT22;13567;61.652;17.100;2022-08-01T05:02:43;17.20;99.90
25708;DHT22;13567;61.652;17.100;2022-08-01T05:05:10;17.20;99.90
25708;DHT22;13567;61.652;17.100;2022-08-01T05:07:39;17.20;99.90
25708;DHT22;13567;61.652;17.100;2022-08-01T05:10:11;17.30;99.90
25708;DHT22;13567;61.652;17.100;2022-08-01T05:12:38;17.30;99.90
25708;DHT22;13567;61.652;17.100;2022-08-01T05:15:05;17.30;99.90
25708;DHT22;13567;61.652;17.100;2022-08-01T05:17:40;17.30;99.90
25708;DHT22;13567;61.652;17.100;2022-08-01T05:20:10;17.40;99.90
25708;DHT22;13567;61.652;17.100;2022-08-01T05:22:38;17.40;99.90
25708;DHT22;13567;61.652;17.100;2022-08-01T05:25:05;17.50;99.90
25708;DHT22;13567;61.652;17.100;2022-08-01T05:27:32;17.40;99.90
25708;DHT22;13567;61.652;17.100;2022-08-01T05:30:07;17.40;99.90
25708;DHT22;13567;61.652;17.100;2022-08-01T05:32:35;17.40;99.90
25708;DHT22;13567;61.652;17.100;2022-08-01T05:35:02;17.40;99.90
25708;DHT22;13567;61.652;17.100;2022-08-01T05:37:29;17.40;99.90
25708;DHT22;13567;61.652;17.100;2022-08-01T05:39:56;17.40;99.90
25708;DHT22;13567;61.652;17.100;2022-08-01T05:42:24;17.30;99.90
25708;DHT22;13567;61.652;17.100;2022-08-01T05:44:51;17.30;99.90
25708;DHT22;13567;61.652;17.100;2022-08-01T05:47:18;17.40;99.90
25708;DHT22;13567;61.652;17.100;2022-08-01T05:49:45;17.40;99.90
25708;DHT22;13567;61.652;17.100;2022-08-01T05:52:12;17.40;99.90
25708;DHT22;13567;61.652;17.100;2022-08-01T05:54:40;17.40;99.90
25708;DHT22;13567;61.652;17.100;2022-08-01T05:57:07;17.30;99.90
25708;DHT22;13567;61.652;17.100;2022-08-01T05:59:34;17.30;99.90
25708;DHT22;13567;61.652;17.100;2022-08-01T06:02:01;17.30;99.90
25708;DHT22;13567;61.652;17.100;2022-08-01T06:04:28;17.30;99.90
25708;DHT22;13567;61.652;17.100;2022-08-01T06:06:55;17.30;99.90
25708;DHT22;13567;61.652;17.100;2022-08-01T06:09:22;17.30;99.90
25708;DHT22;13567;61.652;17.100;2022-08-01T06:11:48;17.30;99.90
25708;DHT22;13567;61.652;17.100;2022-08-01T06:14:15;17.30;99.90
25708;DHT22;13567;61.652;17.100;2022-08-01T06:16:42;17.30;99.90
25708;DHT22;13567;61.652;17.100;2022-08-01T06:19:09;17.30;99.90
25708;DHT22;13567;61.652;17.100;2022-08-01T06:21:36;17.30;99.90
25708;DHT22;13567;61.652;17.100;2022-08-01T06:24:03;17.30;99.90
25708;DHT22;13567;61.652;17.100;2022-08-01T06:26:32;17.20;99.90
25708;DHT22;13567;61.652;17.100;2022-08-01T06:28:59;17.20;99.90
25708;DHT22;13567;61.652;17.100;2022-08-01T06:31:26;17.20;99.90
25708;DHT22;13567;61.652;17.100;2022-08-01T06:33:59;17.30;99.90
25708;DHT22;13567;61.652;17.100;2022-08-01T06:36:26;17.30;99.90
25708;DHT22;13567;61.652;17.100;2022-08-01T06:38:53;17.30;99.90
25708;DHT22;13567;61.652;17.100;2022-08-01T06:41:20;17.30;99.90
25708;DHT22;13567;61.652;17.100;2022-08-01T06:43:47;17.40;99.90
25708;DHT22;13567;61.652;17.100;2022-08-01T06:46:14;17.40;99.90
25708;DHT22;13567;61.652;17.100;2022-08-01T06:48:41;17.40;99.90
25708;DHT22;13567;61.652;17.100;2022-08-01T06:51:09;17.30;99.90
25708;DHT22;13567;61.652;17.100;2022-08-01T06:53:37;17.30;99.90
25708;DHT22;13567;61.652;17.100;2022-08-01T06:56:05;17.20;99.90
25708;DHT22;13567;61.652;17.100;2022-08-01T06:58:32;17.30;99.90
25708;DHT22;13567;61.652;17.100;2022-08-01T07:01:03;17.30;99.90
25708;DHT22;13567;61.652;17.100;2022-08-01T07:03:33;17.40;99.90
25708;DHT22;13567;61.652;17.100;2022-08-01T07:06:22;17.40;99.90
25708;DHT22;13567;61.652;17.100;2022-08-01T07:08:49;17.30;99.90
25708;DHT22;13567;61.652;17.100;2022-08-01T07:11:16;17.20;99.90
25708;DHT22;13567;61.652;17.100;2022-08-01T07:13:43;17.20;99.90
25708;DHT22;13567;61.652;17.100;2022-08-01T07:16:13;17.20;99.90
25708;DHT22;13567;61.652;17.100;2022-08-01T07:18:40;17.30;99.90
25708;DHT22;13567;61.652;17.100;2022-08-01T07:21:08;17.40;99.90
25708;DHT22;13567;61.652;17.100;2022-08-01T07:23:55;17.40;99.90
25708;DHT22;13567;61.652;17.100;2022-08-01T07:26:22;17.50;99.90
25708;DHT22;13567;61.652;17.100;2022-08-01T07:28:49;17.60;99.90
25708;DHT22;13567;61.652;17.100;2022-08-01T07:31:16;17.80;99.90
25708;DHT22;13567;61.652;17.100;2022-08-01T07:33:43;18.20;99.90
25708;DHT22;13567;61.652;17.100;2022-08-01T07:36:15;18.30;99.90
25708;DHT22;13567;61.652;17.100;2022-08-01T07:38:43;18.50;99.90
25708;DHT22;13567;61.652;17.100;2022-08-01T07:41:11;18.80;99.90
25708;DHT22;13567;61.652;17.100;2022-08-01T07:43:38;18.90;99.90
25708;DHT22;13567;61.652;17.100;2022-08-01T07:46:05;18.80;99.90
25708;DHT22;13567;61.652;17.100;2022-08-01T07:48:32;18.80;99.90
25708;DHT22;13567;61.652;17.100;2022-08-01T07:51:00;18.70;99.90
25708;DHT22;13567;61.652;17.100;2022-08-01T07:53:26;18.60;99.90
25708;DHT22;13567;61.652;17.100;2022-08-01T07:55:53;18.60;99.90
25708;DHT22;13567;61.652;17.100;2022-08-01T07:58:20;18.60;99.90
25708;DHT22;13567;61.652;17.100;2022-08-01T08:00:47;18.60;99.90
25708;DHT22;13567;61.652;17.100;2022-08-01T08:03:14;18.60;99.90
25708;DHT22;13567;61.652;17.100;2022-08-01T08:05:41;18.30;99.90
25708;DHT22;13567;61.652;17.100;2022-08-01T08:08:25;18.30;99.90
25708;DHT22;13567;61.652;17.100;2022-08-01T08:10:52;18.30;99.90
25708;DHT22;13567;61.652;17.100;2022-08-01T08:13:19;18.40;99.90
25708;DHT22;13567;61.652;17.100;2022-08-01T08:15:47;18.60;99.90
25708;DHT22;13567;61.652;17.100;2022-08-01T08:18:15;18.80;99.90
25708;DHT22;13567;61.652;17.100;2022-08-01T08:20:42;19.00;99.90
25708;DHT22;13567;61.652;17.100;2022-08-01T08:23:09;18.80;99.90
25708;DHT22;13567;61.652;17.100;2022-08-01T08:26:12;18.80;99.90
25708;DHT22;13567;61.652;17.100;2022-08-01T08:28:39;18.90;99.90
25708;DHT22;13567;61.652;17.100;2022-08-01T08:31:07;18.80;99.90
25708;DHT22;13567;61.652;17.100;2022-08-01T08:33:54;18.70;99.90
25708;DHT22;13567;61.652;17.100;2022-08-01T08:36:21;18.60;99.90
25708;DHT22;13567;61.652;17.100;2022-08-01T08:39:00;18.50;99.90
25708;DHT22;13567;61.652;17.100;2022-08-01T08:41:29;18.20;99.90
25708;DHT22;13567;61.652;17.100;2022-08-01T08:44:08;18.20;99.90
25708;DHT22;13567;61.652;17.100;2022-08-01T08:46:50;18.20;99.90
25708;DHT22;13567;61.652;17.100;2022-08-01T08:49:24;18.40;99.90
25708;DHT22;13567;61.652;17.100;2022-08-01T08:51:53;18.60;99.90
25708;DHT22;13567;61.652;17.100;2022-08-01T08:54:22;18.70;99.90
25708;DHT22;13567;61.652;17.100;2022-08-01T08:56:58;18.60;99.90
25708;DHT22;13567;61.652;17.100;2022-08-01T08:59:25;18.70;99.90
25708;DHT22;13567;61.652;17.100;2022-08-01T09:01:53;18.90;99.90
25708;DHT22;13567;61.652;17.100;2022-08-01T09:04:23;19.00;99.90
25708;DHT22;13567;61.652;17.100;2022-08-01T09:06:53;19.00;99.90
25708;DHT22;13567;61.652;17.100;2022-08-01T09:09:22;19.20;99.90
25708;DHT22;13567;61.652;17.100;2022-08-01T09:11:49;19.20;99.90
25708;DHT22;13567;61.652;17.100;2022-08-01T09:14:32;19.00;99.90
25708;DHT22;13567;61.652;17.100;2022-08-01T09:17:04;19.20;99.90
25708;DHT22;13567;61.652;17.100;2022-08-01T09:19:40;19.30;99.90
25708;DHT22;13567;61.652;17.100;2022-08-01T09:22:10;19.10;99.90
25708;DHT22;13567;61.652;17.100;2022-08-01T09:24:38;19.00;99.90
25708;DHT22;13567;61.652;17.100;2022-08-01T09:27:20;19.10;99.90
25708;DHT22;13567;61.652;17.100;2022-08-01T09:29:50;18.80;99.90
25708;DHT22;13567;61.652;17.100;2022-08-01T09:32:30;18.70;99.90
25708;DHT22;13567;61.652;17.100;2022-08-01T09:35:25;18.70;99.90
25708;DHT22;13567;61.652;17.100;2022-08-01T09:38:20;18.80;99.90
25708;DHT22;13567;61.652;17.100;2022-08-01T09:40:59;19.10;99.90
25708;DHT22;13567;61.652;17.100;2022-08-01T09:43:29;19.20;99.90
25708;DHT22;13567;61.652;17.100;2022-08-01T09:45:58;19.00;99.90
25708;DHT22;13567;61.652;17.100;2022-08-01T09:48:25;19.00;99.90
25708;DHT22;13567;61.652;17.100;2022-08-01T09:50:58;19.00;99.90
25708;DHT22;13567;61.652;17.100;2022-08-01T09:53:44;19.20;99.90
25708;DHT22;13567;61.652;17.100;2022-08-01T09:56:18;19.50;99.90
25708;DHT22;13567;61.652;17.100;2022-08-01T09:58:58;20.00;99.90
25708;DHT22;13567;61.652;17.100;2022-08-01T10:01:48;20.40;99.90
25708;DHT22;13567;61.652;17.100;2022-08-01T10:04:18;20.70;99.90
25708;DHT22;13567;61.652;17.100;2022-08-01T10:06:47;21.00;99.90
25708;DHT22;13567;61.652;17.100;2022-08-01T10:09:26;20.90;99.90
25708;DHT22;13567;61.652;17.100;2022-08-01T10:12:06;21.30;99.90
25708;DHT22;13567;61.652;17.100;2022-08-01T10:14:37;21.80;99.90
25708;DHT22;13567;61.652;17.100;2022-08-01T10:17:15;22.10;99.90
25708;DHT22;13567;61.652;17.100;2022-08-01T10:19:46;22.10;99.90
25708;DHT22;13567;61.652;17.100;2022-08-01T10:22:14;21.50;99.90
25708;DHT22;13567;61.652;17.100;2022-08-01T10:24:47;21.30;99.90
25708;DHT22;13567;61.652;17.100;2022-08-01T10:27:15;21.40;99.90
25708;DHT22;13567;61.652;17.100;2022-08-01T10:32:35;21.90;99.90
25708;DHT22;13567;61.652;17.100;2022-08-01T10:35:06;22.00;99.90
25708;DHT22;13567;61.652;17.100;2022-08-01T10:37:41;22.30;99.90
25708;DHT22;13567;61.652;17.100;2022-08-01T10:40:18;21.50;99.90
25708;DHT22;13567;61.652;17.100;2022-08-01T10:42:57;21.00;99.90
25708;DHT22;13567;61.652;17.100;2022-08-01T10:45:25;20.60;99.90
25708;DHT22;13567;61.652;17.100;2022-08-01T10:50:44;19.60;99.90
25708;DHT22;13567;61.652;17.100;2022-08-01T10:58:29;19.10;99.90
25708;DHT22;13567;61.652;17.100;2022-08-01T11:04:02;19.00;99.90
25708;DHT22;13567;61.652;17.100;2022-08-01T11:09:05;19.10;99.90
25708;DHT22;13567;61.652;17.100;2022-08-01T11:11:32;19.00;99.90
25708;DHT22;13567;61.652;17.100;2022-08-01T11:14:19;19.30;99.90
25708;DHT22;13567;61.652;17.100;2022-08-01T11:16:56;19.60;99.90
25708;DHT22;13567;61.652;17.100;2022-08-01T11:19:23;19.80;99.90
25708;DHT22;13567;61.652;17.100;2022-08-01T11:32:50;19.90;99.90
25708;DHT22;13567;61.652;17.100;2022-08-01T11:35:37;20.40;99.90
25708;DHT22;13567;61.652;17.100;2022-08-01T11:38:26;21.30;99.90
25708;DHT22;13567;61.652;17.100;2022-08-01T11:41:20;22.30;99.90
25708;DHT22;13567;61.652;17.100;2022-08-01T11:44:09;22.80;99.90
25708;DHT22;13567;61.652;17.100;2022-08-01T11:47:04;22.80;99.90
25708;DHT22;13567;61.652;17.100;2022-08-01T11:49:49;22.60;99.90
25708;DHT22;13567;61.652;17.100;2022-08-01T11:52:29;23.10;99.90
25708;DHT22;13567;61.652;17.100;2022-08-01T11:57:32;22.10;99.90
25708;DHT22;13567;61.652;17.100;2022-08-01T12:00:13;21.40;99.90
25708;DHT22;13567;61.652;17.100;2022-08-01T12:02:43;20.80;99.90
25708;DHT22;13567;61.652;17.100;2022-08-01T12:05:14;20.80;99.90
25708;DHT22;13567;61.652;17.100;2022-08-01T12:07:42;20.90;99.90
25708;DHT22;13567;61.652;17.100;2022-08-01T12:10:12;20.70;99.90
25708;DHT22;13567;61.652;17.100;2022-08-01T12:12:47;21.00;99.90
25708;DHT22;13567;61.652;17.100;2022-08-01T12:15:16;20.70;99.90
25708;DHT22;13567;61.652;17.100;2022-08-01T12:17:45;20.50;99.90
25708;DHT22;13567;61.652;17.100;2022-08-01T12:20:27;20.10;99.90
25708;DHT22;13567;61.652;17.100;2022-08-01T12:22:59;20.00;99.90
25708;DHT22;13567;61.652;17.100;2022-08-01T12:25:26;20.00;99.90
25708;DHT22;13567;61.652;17.100;2022-08-01T12:27:53;19.90;99.90
25708;DHT22;13567;61.652;17.100;2022-08-01T12:30:23;19.80;99.90
25708;DHT22;13567;61.652;17.100;2022-08-01T12:32:52;19.70;99.90
25708;DHT22;13567;61.652;17.100;2022-08-01T12:35:24;19.60;99.90
25708;DHT22;13567;61.652;17.100;2022-08-01T12:37:54;19.50;99.90
25708;DHT22;13567;61.652;17.100;2022-08-01T12:40:29;19.40;99.90
25708;DHT22;13567;61.652;17.100;2022-08-01T12:43:02;19.30;99.90
25708;DHT22;13567;61.652;17.100;2022-08-01T12:45:42;19.30;99.90
25708;DHT22;13567;61.652;17.100;2022-08-01T12:48:23;19.30;99.90
25708;DHT22;13567;61.652;17.100;2022-08-01T12:50:51;19.30;99.90
25708;DHT22;13567;61.652;17.100;2022-08-01T12:53:19;19.40;99.90
25708;DHT22;13567;61.652;17.100;2022-08-01T12:58:31;19.70;99.90
25708;DHT22;13567;61.652;17.100;2022-08-01T13:01:09;19.60;99.90
25708;DHT22;13567;61.652;17.100;2022-08-01T13:03:37;19.70;99.90
25708;DHT22;13567;61.652;17.100;2022-08-01T13:06:12;19.70;99.90
25708;DHT22;13567;61.652;17.100;2022-08-01T13:08:42;19.60;99.90
25708;DHT22;13567;61.652;17.100;2022-08-01T13:11:11;19.60;99.90
25708;DHT22;13567;61.652;17.100;2022-08-01T13:16:11;19.60;99.90
25708;DHT22;13567;61.652;17.100;2022-08-01T13:18:58;19.40;99.90
25708;DHT22;13567;61.652;17.100;2022-08-01T13:21:29;19.20;99.90
25708;DHT22;13567;61.652;17.100;2022-08-01T13:24:23;18.90;99.90
25708;DHT22;13567;61.652;17.100;2022-08-01T13:29:35;18.90;99.90
25708;DHT22;13567;61.652;17.100;2022-08-01T13:32:19;18.80;99.90
25708;DHT22;13567;61.652;17.100;2022-08-01T13:35:06;19.00;99.90
25708;DHT22;13567;61.652;17.100;2022-08-01T13:37:38;18.90;99.90
25708;DHT22;13567;61.652;17.100;2022-08-01T13:40:07;18.80;99.90
25708;DHT22;13567;61.652;17.100;2022-08-01T13:42:34;18.80;99.90
25708;DHT22;13567;61.652;17.100;2022-08-01T13:45:05;18.90;99.90
25708;DHT22;13567;61.652;17.100;2022-08-01T13:47:43;18.90;99.90
25708;DHT22;13567;61.652;17.100;2022-08-01T13:50:30;19.00;99.90
25708;DHT22;13567;61.652;17.100;2022-08-01T13:52:57;19.30;99.90
25708;DHT22;13567;61.652;17.100;2022-08-01T13:55:24;19.60;99.90
25708;DHT22;13567;61.652;17.100;2022-08-01T13:57:51;19.70;99.90
25708;DHT22;13567;61.652;17.100;2022-08-01T14:00:18;19.90;99.90
25708;DHT22;13567;61.652;17.100;2022-08-01T14:02:45;19.70;99.90
25708;DHT22;13567;61.652;17.100;2022-08-01T14:05:12;19.60;99.90
25708;DHT22;13567;61.652;17.100;2022-08-01T14:07:39;19.60;99.90
25708;DHT22;13567;61.652;17.100;2022-08-01T14:10:07;19.60;99.90
25708;DHT22;13567;61.652;17.100;2022-08-01T14:12:47;19.60;99.90
25708;DHT22;13567;61.652;17.100;2022-08-01T14:15:14;19.80;99.90
25708;DHT22;13567;61.652;17.100;2022-08-01T14:18:02;20.00;99.90
25708;DHT22;13567;61.652;17.100;2022-08-01T14:20:31;20.40;99.90
25708;DHT22;13567;61.652;17.100;2022-08-01T14:22:58;20.70;99.90
25708;DHT22;13567;61.652;17.100;2022-08-01T14:25:25;20.70;99.90
25708;DHT22;13567;61.652;17.100;2022-08-01T14:28:12;20.60;99.90
25708;DHT22;13567;61.652;17.100;2022-08-01T14:30:39;20.40;99.90
25708;DHT22;13567;61.652;17.100;2022-08-01T14:33:10;20.40;99.90
25708;DHT22;13567;61.652;17.100;2022-08-01T14:35:37;20.60;99.90
25708;DHT22;13567;61.652;17.100;2022-08-01T14:38:24;20.40;99.90
25708;DHT22;13567;61.652;17.100;2022-08-01T14:40:59;20.20;99.90
25708;DHT22;13567;61.652;17.100;2022-08-01T14:43:26;19.70;99.90
25708;DHT22;13567;61.652;17.100;2022-08-01T14:45:59;19.60;99.90
25708;DHT22;13567;61.652;17.100;2022-08-01T14:48:26;19.80;99.90
25708;DHT22;13567;61.652;17.100;2022-08-01T14:50:53;19.90;99.90
25708;DHT22;13567;61.652;17.100;2022-08-01T14:53:20;20.10;99.90
25708;DHT22;13567;61.652;17.100;2022-08-01T14:55:47;20.40;99.90
25708;DHT22;13567;61.652;17.100;2022-08-01T14:58:14;20.90;99.90
25708;DHT22;13567;61.652;17.100;2022-08-01T15:00:41;21.30;99.90
25708;DHT22;13567;61.652;17.100;2022-08-01T15:03:08;21.20;99.90
25708;DHT22;13567;61.652;17.100;2022-08-01T15:05:35;20.60;99.90
25708;DHT22;13567;61.652;17.100;2022-08-01T15:08:05;20.30;99.90
25708;DHT22;13567;61.652;17.100;2022-08-01T15:10:32;20.20;99.90
25708;DHT22;13567;61.652;17.100;2022-08-01T15:12:59;19.80;99.90
25708;DHT22;13567;61.652;17.100;2022-08-01T15:15:28;19.50;99.90
25708;DHT22;13567;61.652;17.100;2022-08-01T15:17:55;19.30;99.90
25708;DHT22;13567;61.652;17.100;2022-08-01T15:20:22;19.30;99.90
25708;DHT22;13567;61.652;17.100;2022-08-01T15:22:49;19.10;99.90
25708;DHT22;13567;61.652;17.100;2022-08-01T15:25:16;19.10;99.90
25708;DHT22;13567;61.652;17.100;2022-08-01T15:27:43;19.10;99.90
25708;DHT22;13567;61.652;17.100;2022-08-01T15:30:10;19.20;99.90
25708;DHT22;13567;61.652;17.100;2022-08-01T15:32:37;19.10;99.90
25708;DHT22;13567;61.652;17.100;2022-08-01T15:35:05;18.90;99.90
25708;DHT22;13567;61.652;17.100;2022-08-01T15:37:33;19.00;99.90
25708;DHT22;13567;61.652;17.100;2022-08-01T15:40:03;19.00;99.90
25708;DHT22;13567;61.652;17.100;2022-08-01T15:42:30;19.00;99.90
25708;DHT22;13567;61.652;17.100;2022-08-01T15:44:57;19.00;99.90
25708;DHT22;13567;61.652;17.100;2022-08-01T15:47:24;19.00;99.90
25708;DHT22;13567;61.652;17.100;2022-08-01T15:49:51;19.00;99.90
25708;DHT22;13567;61.652;17.100;2022-08-01T15:52:18;18.90;99.90
25708;DHT22;13567;61.652;17.100;2022-08-01T15:54:48;18.80;99.90
25708;DHT22;13567;61.652;17.100;2022-08-01T15:57:15;18.90;99.90
25708;DHT22;13567;61.652;17.100;2022-08-01T15:59:42;18.80;99.90
25708;DHT22;13567;61.652;17.100;2022-08-01T16:02:09;18.80;99.90
25708;DHT22;13567;61.652;17.100;2022-08-01T16:04:37;18.80;99.90
25708;DHT22;13567;61.652;17.100;2022-08-01T16:07:05;19.00;99.90
25708;DHT22;13567;61.652;17.100;2022-08-01T16:09:32;18.80;99.90
25708;DHT22;13567;61.652;17.100;2022-08-01T16:11:59;18.80;99.90
25708;DHT22;13567;61.652;17.100;2022-08-01T16:14:26;18.90;99.90
25708;DHT22;13567;61.652;17.100;2022-08-01T16:16:53;19.00;99.90
25708;DHT22;13567;61.652;17.100;2022-08-01T16:19:20;19.00;99.90
25708;DHT22;13567;61.652;17.100;2022-08-01T16:21:47;19.00;99.90
25708;DHT22;13567;61.652;17.100;2022-08-01T16:24:15;18.90;99.90
25708;DHT22;13567;61.652;17.100;2022-08-01T16:26:42;18.90;99.90